Latest Weather Observations for Varanus Island

IDW60801

Issued at 12:12 pm WST Saturday 15 June 2024 (issued every 10 minutes, with the page automatically refreshed every 10 minutes)

About weather observations | Map of weather stations | Latest weather observations for WA | Other Formats
Station Details ID: 200100 Name: VARANUS ISLAND Lat: -20.66 Lon: 115.58 Height: 24.0 m
Data from the previous 72 hours. | See also: Recent months at Varanus Island
Date/Time
WST
Temp
°C
App
Temp
°C
Dew
Point
°C
Rel
Hum
%
Delta-T
°C
Wind Press
QNH
hPa
Press
MSL
hPa
Rain since
9am
mm
Dir  Spd
km/h
Gust
km/h
Spd
kts
Gust
kts
15/12:00pm 26.8 26.4 20.9 70 3.9 NNE 24 32 13 17 1013.5 1013.4 0.0
15/11:30am 26.6 27.1 21.1 72 3.6 NE 20 28 11 15 1013.9 1013.8 0.0
15/11:00am 26.7 27.0 20.8 70 3.9 NE 20 28 11 15 1014.1 1014.0 0.0
15/10:30am 26.6 26.1 20.7 70 3.9 NE 24 32 13 17 1014.3 1014.2 0.0
15/10:00am 26.5 27.3 21.3 73 3.4 NE 19 26 10 14 1014.7 1014.6 0.0
15/09:30am 26.1 26.1 20.9 73 3.4 NE 22 28 12 15 1014.7 1014.6 0.0
15/09:00am 25.9 26.0 21.1 75 3.2 NE 22 30 12 16 1014.7 1014.6 0.0
15/08:30am 25.4 24.8 20.4 74 3.3 NE 24 30 13 16 1014.6 1014.5 0.0
15/08:00am 25.1 25.0 20.8 77 2.8 NNE 22 28 12 15 1014.2 1014.1 0.0
15/07:30am 24.9 25.1 20.6 77 2.8 NNE 20 28 11 15 1014.1 1014.0 0.0
15/07:00am 24.7 24.7 20.2 76 2.9 NNE 20 26 11 14 1013.8 1013.7 0.0
15/06:30am 24.8 24.4 20.1 75 3.1 NNE 22 26 12 14 1013.6 1013.5 0.0
15/06:00am 24.6 24.6 20.1 76 2.9 NNE 20 26 11 14 1013.4 1013.3 0.0
15/05:30am 24.7 24.2 20.0 75 3.0 NNE 22 30 12 16 1013.1 1013.0 0.0
15/05:00am 24.5 23.9 20.4 78 2.7 NE 24 30 13 16 1012.8 1012.7 0.0
15/04:30am 24.6 23.7 19.9 75 3.0 NNE 24 30 13 16 1012.8 1012.7 0.0
15/04:00am 24.6 24.1 19.9 75 3.0 N 22 28 12 15 1012.9 1012.8 0.0
15/03:30am 24.4 24.1 19.5 74 3.1 NNE 20 28 11 15 1013.0 1012.9 0.0
15/03:00am 24.4 24.2 19.7 75 3.0 NE 20 26 11 14 1013.2 1013.1 0.0
15/02:30am 24.4 24.1 19.5 74 3.1 NE 20 26 11 14 1013.3 1013.2 0.0
15/02:00am 24.2 24.1 19.5 75 3.0 NE 19 24 10 13 1013.3 1013.2 0.0
15/01:30am 24.1 24.3 19.4 75 3.0 NE 17 22 9 12 1013.6 1013.5 0.0
15/01:00am 24.2 24.4 19.3 74 3.1 NNE 17 22 9 12 1013.8 1013.7 0.0
15/12:30am 24.1 24.9 19.8 77 2.8 NE 15 19 8 10 1013.8 1013.7 0.0
15/12:00am 24.0 24.6 19.5 76 2.9 NE 15 17 8 9 1014.1 1014.0 0.0
 
Date/Time
WST
Temp
°C
App
Temp
°C
Dew
Point
°C
Rel
Hum
%
Delta-T
°C
Wind Press
QNH
hPa
Press
MSL
hPa
Rain since
9am
mm
Dir  Spd
km/h
Gust
km/h
Spd
kts
Gust
kts
14/11:30pm 23.9 24.9 19.4 76 2.9 NE 13 15 7 8 1014.5 1014.4 0.0
14/11:00pm 23.8 25.4 19.1 75 3.0 NNE 9 13 5 7 1014.5 1014.4 0.0
14/10:30pm 24.0 24.8 19.1 74 3.1 NE 13 17 7 9 1014.6 1014.5 0.0
14/10:00pm 23.9 24.5 18.5 72 3.4 NE 13 15 7 8 1014.7 1014.6 0.0
14/09:30pm 23.6 25.3 18.0 71 3.5 NE 6 9 3 5 1014.9 1014.8 0.0
14/09:00pm 23.8 24.7 17.5 68 3.9 NE 9 11 5 6 1014.9 1014.8 0.0
14/08:30pm 24.1 25.1 17.8 68 3.9 NE 9 13 5 7 1014.8 1014.7 0.0
14/08:00pm 24.1 24.5 18.1 69 3.8 NE 13 17 7 9 1014.4 1014.3 0.0
14/07:30pm 24.1 24.0 17.8 68 3.9 ENE 15 19 8 10 1013.8 1013.7 0.0
14/07:00pm 24.2 24.1 17.9 68 3.9 NE 15 17 8 9 1013.6 1013.5 0.0
14/06:30pm 24.2 23.9 17.4 65 4.2 NE 15 19 8 10 1013.1 1013.0 0.0
14/06:00pm 24.4 24.5 17.4 65 4.4 NE 13 17 7 9 1012.9 1012.8 0.0
14/05:30pm 25.0 24.9 17.0 61 5.0 ENE 13 15 7 8 1012.8 1012.7 0.0
14/05:00pm 25.7 25.9 16.8 58 5.5 ENE 11 13 6 7 1012.6 1012.5 0.0
14/04:30pm 26.1 26.4 16.1 54 6.1 ENE 9 11 5 6 1012.4 1012.3 0.0
14/04:00pm 26.4 26.6 15.8 52 6.5 ENE 9 13 5 7 1012.3 1012.2 0.0
14/03:30pm 27.0 27.0 16.3 52 6.6 E 11 13 6 7 1012.2 1012.1 0.0
14/03:00pm 27.0 27.0 16.3 52 6.6 ENE 11 13 6 7 1012.5 1012.4 0.0
14/02:30pm 27.5 27.7 15.8 48 7.2 E 9 13 5 7 1012.7 1012.6 0.0
14/02:00pm 26.8 26.7 16.1 52 6.6 E 11 13 6 7 1012.7 1012.6 0.0
14/01:30pm 27.1 27.5 17.3 55 6.1 E 11 13 6 7 1012.9 1012.8 0.0
14/01:00pm 26.7 27.6 18.3 60 5.3 E 11 13 6 7 1013.4 1013.3 0.0
14/12:30pm 26.2 26.3 18.3 61 5.0 E 15 17 8 9 1013.7 1013.6 0.0
14/12:00pm 26.2 25.9 18.3 61 5.0 ESE 17 17 9 9 1014.2 1014.1 0.0
14/11:30am 26.0 25.7 18.2 62 4.9 E 17 19 9 10 1014.4 1014.3 0.0
14/11:00am 25.9 25.8 18.8 65 4.5 E 17 19 9 10 1014.9 1014.8 0.0
14/10:30am 25.8 26.5 19.7 69 3.9 E 15 17 8 9 1015.2 1015.1 0.0
14/10:00am 25.6 26.3 20.4 73 3.4 E 17 19 9 10 1015.2 1015.1 0.0
14/09:30am 24.9 25.8 20.8 78 2.7 E 17 20 9 11 1015.3 1015.2 0.0
14/09:00am 25.2 26.4 21.5 80 2.5 E 17 20 9 11 1015.2 1015.1 0.0
14/08:30am 23.5 24.0 20.8 85 1.8 E 19 20 10 11 1014.8 1014.7 0.0
14/08:00am 23.4 24.7 20.9 86 1.6 E 15 17 8 9 1014.4 1014.3 0.0
14/07:30am 23.2 24.9 20.9 87 1.5 E 13 15 7 8 1014.5 1014.4 0.0
14/07:00am 23.1 24.6 20.6 86 1.6 ESE 13 15 7 8 1014.2 1014.1 0.0
14/06:30am 23.2 25.4 20.3 84 1.9 ESE 9 17 5 9 1014.2 1014.1 0.0
14/06:00am 23.1 25.9 18.0 73 3.2 CALM 0 0 0 0 1014.2 1014.1 0.0
14/05:30am 23.5 26.4 18.2 72 3.3 CALM 0 0 0 0 1014.1 1014.0 0.0
14/05:00am 23.4 25.0 18.3 73 3.2 NNW 7 9 4 5 1013.6 1013.5 0.0
14/04:30am 23.3 25.1 18.4 74 3.1 NNW 6 9 3 5 1013.9 1013.8 0.0
14/04:00am 23.3 24.9 18.2 73 3.2 NNW 7 11 4 6 1014.0 1013.9 0.0
14/03:30am 23.3 24.6 18.4 74 3.1 NNW 9 11 5 6 1014.0 1013.9 0.0
14/03:00am 23.3 25.1 18.4 74 3.1 NNW 6 11 3 6 1014.2 1014.1 0.0
14/02:30am 23.4 24.0 18.5 74 3.1 N 13 15 7 8 1014.2 1014.1 0.0
14/02:00am 23.2 23.2 18.1 73 3.2 NNW 15 17 8 9 1014.5 1014.4 0.0
14/01:30am 23.1 22.7 18.0 73 3.2 NNW 17 19 9 10 1014.8 1014.7 0.0
14/01:00am 22.9 23.5 18.7 77 2.7 NNW 13 15 7 8 1014.7 1014.6 0.0
14/12:30am 22.9 23.7 19.1 79 2.4 NNW 13 13 7 7 1014.9 1014.8 0.0
14/12:00am 23.3 24.4 18.8 76 2.8 N 11 15 6 8 1015.1 1015.0 0.0
 
Date/Time
WST
Temp
°C
App
Temp
°C
Dew
Point
°C
Rel
Hum
%
Delta-T
°C
Wind Press
QNH
hPa
Press
MSL
hPa
Rain since
9am
mm
Dir  Spd
km/h
Gust
km/h
Spd
kts
Gust
kts
13/11:30pm 23.0 23.3 18.7 77 2.7 NNW 15 17 8 9 1015.6 1015.4 0.0
13/11:00pm 22.8 23.7 19.2 80 2.3 NNW 13 15 7 8 1015.9 1015.7 0.0
13/10:30pm 22.9 23.7 19.1 79 2.4 NNW 13 13 7 7 1016.2 1016.0 0.0
13/10:00pm 22.8 23.8 18.6 77 2.6 NW 11 11 6 6 1016.2 1016.0 0.0
13/09:30pm 23.1 24.4 19.3 79 2.4 NW 11 13 6 7 1016.5 1016.3 0.0
13/09:00pm 23.1 23.8 18.8 77 2.7 NW 13 15 7 8 1016.6 1016.5 0.0
13/08:30pm 23.2 24.2 19.4 79 2.4 NW 13 15 7 8 1016.4 1016.2 0.0
13/08:00pm 23.5 24.7 19.8 80 2.4 NW 13 15 7 8 1016.2 1016.0 0.0
13/07:30pm 23.5 24.1 18.6 74 3.1 NW 13 13 7 7 1016.0 1015.8 0.0
13/07:00pm 23.5 24.6 18.8 75 3.0 NNW 11 13 6 7 1015.8 1015.6 0.0
13/06:30pm 23.7 25.1 18.6 73 3.2 NNW 9 11 5 6 1015.4 1015.3 0.0
13/06:00pm 24.0 25.2 18.2 70 3.6 NNW 9 11 5 6 1015.2 1015.1 0.0
13/05:30pm 24.8 25.0 16.8 61 4.9 NNW 11 13 6 7 1014.9 1014.8 0.0
13/05:00pm 25.4 26.5 18.1 64 4.6 NE 9 13 5 7 1014.6 1014.5 0.0
13/04:30pm 25.2 25.9 17.9 64 4.6 NE 11 15 6 8 1014.4 1014.3 0.0
13/04:00pm 25.9 26.8 18.3 63 4.8 NE 11 13 6 7 1014.2 1014.1 0.0
13/03:30pm 25.9 26.3 17.3 59 5.4 NE 11 15 6 8 1014.0 1013.9 0.0
13/03:00pm 26.7 27.7 16.9 55 6.1 NNE 7 11 4 6 1013.9 1013.8 0.0
13/02:30pm 26.3 26.9 16.8 56 5.9 NE 9 11 5 6 1013.9 1013.8 0.0
13/02:00pm 26.2 27.3 17.0 57 5.7 E 7 11 4 6 1014.1 1014.0 0.0
13/01:30pm 26.1 27.5 17.7 60 5.3 E 7 9 4 5 1014.4 1014.3 0.0
13/01:00pm 26.3 26.8 17.4 58 5.6 E 11 13 6 7 1014.7 1014.6 0.0
13/12:30pm 26.1 26.6 17.5 59 5.4 E 11 11 6 6 1015.2 1015.1 0.0
13/12:00pm 25.5 26.3 17.2 60 5.2 S 9 11 5 6 1015.9 1015.7 0.0
13/11:30am 24.6 25.5 16.6 61 4.9 SSW 7 11 4 6 1016.4 1016.2 0.0
13/11:00am 25.0 25.7 17.0 61 5.0 S 9 13 5 7 1016.6 1016.5 0.0
13/10:30am 24.8 25.5 17.0 62 4.8 SSW 9 13 5 7 1017.0 1016.9 0.0
13/10:00am 24.7 25.3 16.7 61 4.9 SSW 9 11 5 6 1017.3 1017.2 0.0
13/09:30am 24.3 24.9 16.8 63 4.6 SSW 9 11 5 6 1017.1 1017.0 0.0
13/09:00am 24.1 25.2 16.6 63 4.6 S 6 9 3 5 1016.7 1016.6 0.0
13/08:30am 23.4 24.2 16.4 64 4.3 SW 7 9 4 5 1016.9 1016.8 0.0
13/08:00am 23.2 24.8 17.0 68 3.8 SSE 4 9 2 5 1017.0 1016.9 0.0
13/07:30am 23.0 25.4 17.0 69 3.7 CALM 0 0 0 0 1016.7 1016.6 0.0
13/07:00am 23.0 24.9 16.8 68 3.8 SE 2 6 1 3 1016.4 1016.2 0.0
13/06:30am 22.7 23.6 16.7 69 3.7 SE 7 9 4 5 1016.0 1015.8 0.0
13/06:00am 22.9 22.8 16.9 69 3.7 SSE 13 15 7 8 1015.6 1015.4 0.0
13/05:30am 22.9 22.8 16.9 69 3.7 S 13 15 7 8 1015.9 1015.7 0.0
13/05:00am 23.0 23.8 18.1 74 3.1 S 11 13 6 7 1015.9 1015.7 0.0
13/04:30am 23.0 24.2 18.3 75 3.0 SSW 9 11 5 6 1016.0 1015.8 0.0
13/04:00am 23.3 25.0 18.6 75 3.0 SW 7 9 4 5 1016.1 1015.9 0.0
13/03:30am 23.3 25.1 18.8 76 2.9 WSW 7 9 4 5 1016.3 1016.1 0.0
13/03:00am 23.3 25.2 19.0 77 2.7 WSW 7 9 4 5 1016.5 1016.3 0.0
13/02:30am 23.1 24.9 18.4 75 3.0 WSW 6 7 3 4 1016.4 1016.2 0.0
13/02:00am 23.5 25.0 18.8 75 3.0 WSW 9 13 5 7 1016.9 1016.8 0.0
13/01:30am 23.3 23.9 18.6 75 3.0 WSW 13 15 7 8 1017.2 1017.1 0.0
13/01:00am 23.6 24.3 18.9 75 3.0 WSW 13 15 7 8 1017.4 1017.3 0.0
13/12:30am 23.1 23.9 18.2 74 3.1 WSW 11 13 6 7 1017.6 1017.5 0.0
13/12:00am 23.2 23.7 18.3 74 3.1 WSW 13 15 7 8 1017.9 1017.8 0.0
 
Date/Time
WST
Temp
°C
App
Temp
°C
Dew
Point
°C
Rel
Hum
%
Delta-T
°C
Wind Press
QNH
hPa
Press
MSL
hPa
Rain since
9am
mm
Dir  Spd
km/h
Gust
km/h
Spd
kts
Gust
kts
12/11:30pm 23.0 23.5 18.3 75 3.0 WSW 13 15 7 8 1018.3 1018.2 0.0
12/11:00pm 23.0 23.4 18.1 74 3.1 W 13 13 7 7 1018.4 1018.3 0.0
12/10:30pm 23.0 23.4 18.1 74 3.1 W 13 17 7 9 1018.5 1018.4 0.0
12/10:00pm 23.0 23.2 17.7 72 3.3 W 13 15 7 8 1018.6 1018.5 0.0
12/09:30pm 22.8 23.7 17.5 72 3.3 NW 9 13 5 7 1018.5 1018.4 0.0
12/09:00pm 22.7 23.8 18.0 75 2.9 NW 9 11 5 6 1018.4 1018.3 0.0
12/08:30pm 22.6 23.4 18.2 76 2.8 NW 11 13 6 7 1018.1 1018.0 0.0
12/08:00pm 23.2 23.5 17.9 72 3.3 WNW 13 17 7 9 1018.3 1018.2 0.0
12/07:30pm 22.9 23.4 17.4 71 3.4 NW 11 11 6 6 1017.7 1017.6 0.0
12/07:00pm 22.9 23.8 18.4 76 2.8 NW 11 13 6 7 1017.5 1017.4 0.0
12/06:30pm 23.1 23.4 18.0 73 3.2 NNW 13 15 7 8 1017.3 1017.2 0.0
12/06:00pm 23.3 23.1 16.8 67 4.0 NNW 13 15 7 8 1017.0 1016.9 0.0
12/05:30pm 23.5 23.3 17.7 70 3.6 NNW 15 17 8 9 1016.8 1016.7 0.0
12/05:00pm 24.4 24.0 17.1 63 4.5 NNW 15 17 8 9 1016.6 1016.5 0.0
12/04:30pm 24.5 24.7 17.7 66 4.3 NNW 13 15 7 8 1016.9 1016.8 0.0
12/04:00pm 25.2 25.2 15.2 54 6.0 NNW 9 11 5 6 1016.6 1016.5 0.0
12/03:30pm 25.3 25.7 16.4 57 5.5 NNW 9 11 5 6 1016.6 1016.5 0.0
12/03:00pm 25.5 27.4 18.9 67 4.2 WNW 7 11 4 6 1016.5 1016.3 0.0
12/02:30pm 24.9 27.4 18.1 66 4.3 SW 2 9 1 5 1016.6 1016.5 0.0
12/02:00pm 25.0 26.7 18.4 66 4.2 E 7 9 4 5 1016.8 1016.7 0.0
12/01:30pm 24.5 25.9 18.7 70 3.7 SE 9 11 5 6 1016.9 1016.8 0.0
12/01:00pm 24.6 25.5 18.5 69 3.9 ESE 11 13 6 7 1017.3 1017.2 0.0
12/12:30pm 24.6 24.9 18.8 70 3.7 ESE 15 17 8 9 1017.4 1017.3 0.0

Other formats

Comma delimited format used in spreadsheet applications
http://www.bom.gov.au/fwo/IDW60801/IDW60801.95303.axf

JavaScript Object Notation format (JSON) in row-major order
http://www.bom.gov.au/fwo/IDW60801/IDW60801.95303.json

Data quality

Most of these data are generated automatically and are frequently updated. Quality checks on data are not normally performed. It is possible for incorrect values to appear. Refer to information at About Latest Weather Observations and please check the disclaimer before using these data.